createdAt,value
2022-09-20T00:01:21.089Z,11.12
2022-09-20T00:03:51.928Z,10.89
2022-09-20T00:06:22.280Z,10.90
2022-09-20T00:08:50.561Z,11.14
2022-09-20T00:11:20.876Z,11.09
2022-09-20T00:13:50.812Z,11.11
2022-09-20T00:16:23.414Z,11.23
2022-09-20T00:18:51.844Z,11.02
2022-09-20T00:21:21.490Z,10.87
2022-09-20T00:23:49.458Z,10.58
2022-09-20T00:26:17.567Z,10.36
2022-09-20T00:28:47.180Z,10.49
2022-09-20T00:31:21.050Z,10.69
2022-09-20T00:34:06.512Z,10.74
2022-09-20T00:36:34.493Z,10.82
2022-09-20T00:39:03.580Z,10.76
2022-09-20T00:41:33.434Z,10.48
2022-09-20T00:44:01.896Z,10.41
2022-09-20T00:46:38.699Z,10.55
2022-09-20T00:49:13.401Z,10.66
2022-09-20T00:51:44.217Z,10.35
2022-09-20T00:54:20.170Z,10.37
2022-09-20T00:56:49.883Z,10.31
2022-09-20T00:59:22.882Z,10.45
2022-09-20T01:01:54.726Z,10.07
2022-09-20T01:04:27.158Z,10.15
2022-09-20T01:06:58.593Z,9.97
2022-09-20T01:09:26.551Z,9.81
2022-09-20T01:11:57.036Z,9.74
2022-09-20T01:14:27.819Z,10.22
2022-09-20T01:17:00.617Z,10.11
2022-09-20T01:19:35.850Z,10.20
2022-09-20T01:22:09.198Z,10.32
2022-09-20T01:24:48.952Z,10.16
2022-09-20T01:27:24.746Z,10.03
2022-09-20T01:30:05.958Z,10.03
2022-09-20T01:32:45.490Z,10.11
2022-09-20T01:35:14.361Z,10.18
2022-09-20T01:37:52.846Z,10.27
2022-09-20T01:40:28.113Z,10.29
2022-09-20T01:43:03.842Z,10.11
2022-09-20T01:45:34.107Z,10.28
2022-09-20T01:48:13.405Z,10.42
2022-09-20T01:51:00.381Z,10.23
2022-09-20T01:53:57.920Z,10.41
2022-09-20T01:57:04.769Z,10.10
2022-09-20T01:59:50.975Z,10.16
2022-09-20T02:02:57.885Z,10.16
2022-09-20T02:05:59.129Z,10.10
2022-09-20T02:08:41.897Z,9.93
2022-09-20T02:11:16.232Z,10.05
2022-09-20T02:14:04.639Z,10.09
2022-09-20T02:16:45.717Z,10.02
2022-09-20T02:19:39.061Z,10.40
2022-09-20T02:22:19.727Z,10.36
2022-09-20T02:24:54.527Z,10.19
2022-09-20T02:27:27.926Z,10.25
2022-09-20T02:30:06.881Z,10.46
2022-09-20T02:32:52.402Z,10.49
2022-09-20T02:35:34.226Z,10.19
2022-09-20T02:38:12.500Z,10.32
2022-09-20T02:40:53.745Z,10.64
2022-09-20T02:43:31.597Z,10.54
2022-09-20T02:46:05.031Z,10.37
2022-09-20T02:48:48.286Z,10.51
2022-09-20T02:51:25.458Z,10.50
2022-09-20T02:54:07.277Z,10.50
2022-09-20T02:56:43.875Z,10.05
2022-09-20T02:59:23.841Z,10.03
2022-09-20T03:02:02.327Z,9.87
2022-09-20T03:04:45.068Z,10.16
2022-09-20T03:07:33.280Z,10.33
2022-09-20T03:10:12.130Z,10.22
2022-09-20T03:12:50.528Z,10.03
2022-09-20T03:15:28.522Z,10.06
2022-09-20T03:18:07.496Z,9.94
2022-09-20T03:20:47.208Z,10.19
2022-09-20T03:23:35.560Z,10.11
2022-09-20T03:26:15.701Z,10.13
2022-09-20T03:28:57.225Z,10.25
2022-09-20T03:31:53.647Z,10.17
2022-09-20T03:34:40.413Z,10.15
2022-09-20T03:37:23.945Z,10.32
2022-09-20T03:40:37.804Z,10.51
2022-09-20T03:43:19.032Z,10.20
2022-09-20T03:45:58.421Z,10.28
2022-09-20T03:48:54.258Z,10.32
2022-09-20T03:51:31.698Z,10.38
2022-09-20T03:54:38.287Z,10.21
2022-09-20T03:57:36.121Z,10.44
2022-09-20T04:00:23.492Z,10.27
2022-09-20T04:03:22.172Z,10.36
2022-09-20T04:06:01.945Z,10.42
2022-09-20T04:08:49.237Z,10.38
2022-09-20T04:11:24.246Z,10.77
2022-09-20T04:13:59.283Z,10.78
2022-09-20T04:16:36.513Z,10.33
2022-09-20T04:19:12.088Z,10.74
2022-09-20T04:21:48.051Z,10.60
2022-09-20T04:24:23.750Z,10.65
2022-09-20T04:26:56.006Z,10.47
2022-09-20T04:29:34.679Z,10.44
2022-09-20T04:32:14.755Z,10.30
2022-09-20T04:35:07.197Z,10.57
2022-09-20T04:37:38.467Z,10.73
2022-09-20T04:40:15.995Z,10.69
2022-09-20T04:43:18.462Z,10.51
2022-09-20T04:46:09.549Z,10.49
2022-09-20T04:49:00.648Z,10.31
2022-09-20T04:51:59.036Z,10.42
2022-09-20T04:55:05.770Z,10.46
2022-09-20T04:58:12.575Z,10.04
2022-09-20T05:00:58.547Z,10.34
2022-09-20T05:03:53.161Z,10.41
2022-09-20T05:06:45.682Z,10.18
2022-09-20T05:09:34.196Z,10.47
2022-09-20T05:12:34.340Z,10.38
2022-09-20T05:15:31.466Z,10.24
2022-09-20T05:18:19.569Z,10.41
2022-09-20T05:21:01.719Z,10.55
2022-09-20T05:23:58.364Z,10.75
2022-09-20T05:26:38.708Z,10.72
2022-09-20T05:29:14.412Z,10.67
2022-09-20T05:31:50.902Z,10.89
2022-09-20T05:34:29.263Z,10.89
2022-09-20T05:37:08.040Z,10.67
2022-09-20T05:39:41.678Z,10.76
2022-09-20T05:42:18.684Z,10.21
2022-09-20T05:44:57.298Z,10.17
2022-09-20T05:47:36.059Z,10.26
2022-09-20T05:50:35.230Z,10.27
2022-09-20T05:53:20.721Z,10.67
2022-09-20T05:56:01.623Z,10.45
2022-09-20T05:58:45.872Z,10.56
2022-09-20T06:01:21.433Z,10.44
2022-09-20T06:03:55.863Z,10.67
2022-09-20T06:06:32.723Z,10.80
2022-09-20T06:09:24.007Z,10.87
2022-09-20T06:12:23.536Z,10.89
2022-09-20T06:15:01.858Z,11.20
2022-09-20T06:17:36.633Z,11.05
2022-09-20T06:20:19.202Z,11.04
2022-09-20T06:22:50.867Z,11.14
2022-09-20T06:25:27.778Z,11.56
2022-09-20T06:27:59.708Z,11.40
2022-09-20T06:30:31.125Z,11.61
2022-09-20T06:33:01.161Z,11.61
2022-09-20T06:35:38.327Z,11.68
2022-09-20T06:38:39.598Z,11.74
2022-09-20T06:41:30.545Z,11.72
2022-09-20T06:44:01.061Z,12.14
2022-09-20T06:46:30.612Z,12.25
2022-09-20T06:48:59.844Z,11.87
2022-09-20T06:51:29.464Z,12.14
2022-09-20T06:53:58.016Z,12.28
2022-09-20T06:56:30.917Z,12.11
2022-09-20T06:58:59.221Z,12.18
2022-09-20T07:01:30.570Z,11.61
2022-09-20T07:03:58.818Z,12.07
2022-09-20T07:06:27.363Z,11.74
2022-09-20T07:08:55.225Z,11.84
2022-09-20T07:11:23.658Z,11.73
2022-09-20T07:13:54.468Z,12.13
2022-09-20T07:16:22.800Z,12.09
2022-09-20T07:18:52.391Z,11.54
2022-09-20T07:21:22.115Z,11.54
2022-09-20T07:23:50.060Z,11.47
2022-09-20T07:26:20.155Z,11.73
2022-09-20T07:28:49.470Z,11.50
2022-09-20T07:31:19.817Z,11.91
2022-09-20T07:33:48.191Z,12.49
2022-09-20T07:36:16.631Z,12.62
2022-09-20T07:38:49.079Z,12.53
2022-09-20T07:41:19.122Z,12.56
2022-09-20T07:43:47.559Z,12.67
2022-09-20T07:46:15.514Z,12.92
2022-09-20T07:48:44.691Z,12.90
2022-09-20T07:51:14.452Z,13.58
2022-09-20T07:53:42.714Z,13.04
2022-09-20T07:56:16.284Z,12.91
2022-09-20T07:58:47.402Z,11.94
2022-09-20T08:01:21.105Z,11.79
2022-09-20T08:03:51.165Z,12.19
2022-09-20T08:06:21.414Z,12.50
2022-09-20T08:08:49.495Z,12.02
2022-09-20T08:11:19.678Z,12.13
2022-09-20T08:16:40.524Z,11.67
2022-09-20T08:19:12.806Z,11.52
2022-09-20T08:21:41.055Z,11.39
2022-09-20T08:24:08.919Z,11.66
2022-09-20T08:26:37.138Z,12.41
2022-09-20T08:29:06.415Z,12.09
2022-09-20T08:31:37.487Z,12.54
2022-09-20T08:34:10.537Z,12.62
2022-09-20T08:36:41.846Z,12.96
2022-09-20T08:42:05.611Z,13.58
2022-09-20T08:44:36.895Z,13.64
2022-09-20T08:47:13.722Z,14.13
2022-09-20T08:49:46.210Z,13.30
2022-09-20T08:52:18.964Z,12.49
2022-09-20T08:54:47.516Z,11.83
2022-09-20T08:57:18.378Z,11.76
2022-09-20T08:59:46.625Z,11.38
2022-09-20T09:02:19.909Z,11.82
2022-09-20T09:04:51.545Z,11.90
2022-09-20T09:07:22.667Z,11.83
2022-09-20T09:09:55.417Z,11.57
2022-09-20T09:12:25.962Z,11.25
2022-09-20T09:14:59.351Z,11.19
2022-09-20T09:17:29.063Z,11.12
2022-09-20T09:20:02.044Z,11.19
2022-09-20T09:22:32.853Z,11.29
2022-09-20T09:25:23.836Z,10.95
2022-09-20T09:27:55.088Z,11.26
2022-09-20T09:30:26.321Z,11.56
2022-09-20T09:32:54.716Z,11.26
2022-09-20T09:35:31.577Z,11.56
2022-09-20T09:38:01.642Z,11.72
2022-09-20T09:40:32.641Z,11.85
2022-09-20T09:43:02.673Z,12.01
2022-09-20T09:45:34.803Z,12.31
2022-09-20T09:48:05.116Z,12.67
2022-09-20T09:50:35.302Z,13.35
2022-09-20T09:53:10.713Z,13.38
2022-09-20T09:55:56.166Z,13.38
2022-09-20T09:58:36.661Z,14.42
2022-09-20T10:01:07.784Z,14.57
2022-09-20T10:03:47.649Z,14.73
2022-09-20T10:06:23.536Z,15.61
2022-09-20T10:09:04.700Z,14.52
2022-09-20T10:11:47.343Z,15.00
2022-09-20T10:14:29.577Z,15.23
2022-09-20T10:17:17.095Z,15.05
2022-09-20T10:19:57.602Z,15.77
2022-09-20T10:22:37.078Z,15.91
2022-09-20T10:25:13.084Z,15.99
2022-09-20T10:27:54.703Z,16.54
2022-09-20T10:30:24.669Z,17.77
2022-09-20T10:33:05.732Z,19.43
2022-09-20T10:35:52.656Z,19.36
2022-09-20T10:38:29.165Z,17.92
2022-09-20T10:41:33.342Z,18.33
2022-09-20T10:44:10.992Z,19.58
2022-09-20T10:46:53.145Z,20.49
2022-09-20T10:49:35.246Z,19.92
2022-09-20T10:52:25.280Z,17.79
2022-09-20T10:55:09.101Z,18.51
2022-09-20T10:58:01.435Z,17.40
2022-09-20T11:00:41.615Z,15.80
2022-09-20T11:03:22.677Z,15.48
2022-09-20T11:06:03.047Z,15.06
2022-09-20T11:08:35.078Z,15.30
2022-09-20T11:11:08.332Z,17.90
2022-09-20T11:13:41.958Z,18.92
2022-09-20T11:16:15.397Z,19.51
2022-09-20T11:18:50.543Z,18.43
2022-09-20T11:21:25.558Z,19.42
2022-09-20T11:23:58.521Z,20.01
2022-09-20T11:26:36.094Z,18.90
2022-09-20T11:29:13.562Z,16.38
2022-09-20T11:31:45.229Z,17.20
2022-09-20T11:34:18.916Z,17.75
2022-09-20T11:36:52.293Z,17.38
2022-09-20T11:39:26.388Z,16.46
2022-09-20T11:41:59.940Z,15.93
2022-09-20T11:44:27.969Z,16.30
2022-09-20T11:47:00.671Z,16.67
2022-09-20T11:49:31.962Z,16.39
2022-09-20T11:52:21.148Z,15.96
2022-09-20T11:55:15.408Z,16.13
2022-09-20T11:57:45.124Z,15.69
2022-09-20T12:00:13.828Z,15.53
2022-09-20T12:03:08.870Z,16.76
2022-09-20T12:05:40.110Z,16.08
2022-09-20T12:08:19.978Z,16.03
2022-09-20T12:11:01.835Z,16.48
2022-09-20T12:13:33.058Z,16.34
2022-09-20T12:16:04.646Z,15.79
2022-09-20T12:18:39.674Z,14.44
2022-09-20T12:21:16.532Z,13.44
2022-09-20T12:24:23.813Z,12.80
2022-09-20T12:27:00.551Z,13.15
2022-09-20T12:29:57.288Z,13.00
2022-09-20T12:32:55.052Z,13.06
2022-09-20T12:35:54.398Z,13.01
2022-09-20T12:38:45.561Z,13.30
2022-09-20T12:41:17.313Z,13.66
2022-09-20T12:44:01.451Z,13.63
2022-09-20T12:46:55.127Z,13.93
2022-09-20T12:50:08.273Z,15.39
2022-09-20T12:52:57.607Z,16.29
2022-09-20T12:55:40.820Z,16.62
2022-09-20T12:58:32.981Z,16.99
2022-09-20T13:01:45.358Z,16.50
2022-09-20T13:04:53.566Z,16.07
2022-09-20T13:07:38.907Z,16.44
2022-09-20T13:10:26.297Z,16.72
2022-09-20T13:13:00.304Z,16.48
2022-09-20T13:15:28.878Z,16.33
2022-09-20T13:18:00.776Z,16.98
2022-09-20T13:20:34.934Z,17.10
2022-09-20T13:23:05.317Z,16.91
2022-09-20T13:25:34.927Z,17.28
2022-09-20T13:28:09.229Z,16.60
2022-09-20T13:30:37.678Z,16.67
2022-09-20T13:33:24.906Z,15.80
2022-09-20T13:35:57.201Z,14.98
2022-09-20T13:38:29.904Z,15.05
2022-09-20T13:41:06.285Z,15.26
2022-09-20T13:43:38.685Z,14.94
2022-09-20T13:46:11.590Z,14.90
2022-09-20T13:48:40.359Z,14.47
2022-09-20T13:51:19.278Z,14.53
2022-09-20T13:53:48.075Z,13.87
2022-09-20T13:56:21.501Z,14.22
2022-09-20T13:58:50.547Z,14.04
2022-09-20T14:01:24.524Z,14.21
2022-09-20T14:03:54.001Z,14.97
2022-09-20T14:06:29.730Z,16.24
2022-09-20T14:09:00.001Z,16.63
2022-09-20T14:11:31.116Z,16.46
2022-09-20T14:14:01.559Z,16.70
2022-09-20T14:16:32.643Z,17.17
2022-09-20T14:19:01.798Z,16.76
2022-09-20T14:21:34.390Z,17.87
2022-09-20T14:24:06.404Z,19.23
2022-09-20T14:26:36.354Z,16.95
2022-09-20T14:29:29.017Z,14.94
2022-09-20T14:31:59.136Z,14.13
2022-09-20T14:34:27.272Z,13.75
2022-09-20T14:37:06.310Z,14.00
2022-09-20T14:39:37.232Z,14.23
2022-09-20T14:42:16.002Z,14.20
2022-09-20T14:44:43.918Z,14.41
2022-09-20T14:47:15.493Z,13.09
2022-09-20T14:49:45.267Z,13.00
2022-09-20T14:52:45.370Z,13.47
2022-09-20T14:55:28.531Z,13.83
2022-09-20T14:58:02.014Z,13.58
2022-09-20T15:00:30.713Z,14.98
2022-09-20T15:03:08.183Z,15.65
2022-09-20T15:05:36.109Z,15.85
2022-09-20T15:08:04.278Z,16.22
2022-09-20T15:10:33.498Z,15.60
2022-09-20T15:13:01.299Z,14.67
2022-09-20T15:15:29.272Z,13.93
2022-09-20T15:17:57.100Z,13.49
2022-09-20T15:20:25.491Z,13.13
2022-09-20T15:22:53.382Z,12.77
2022-09-20T15:25:22.250Z,12.81
2022-09-20T15:27:51.837Z,12.79
2022-09-20T15:30:21.138Z,12.12
2022-09-20T15:32:49.617Z,11.95
2022-09-20T15:35:17.533Z,11.75
2022-09-20T15:37:45.537Z,11.33
2022-09-20T15:40:13.645Z,11.49
2022-09-20T15:42:42.050Z,11.61
2022-09-20T15:45:12.679Z,11.27
2022-09-20T15:47:40.771Z,11.55
2022-09-20T15:50:09.989Z,11.52
2022-09-20T15:52:39.871Z,11.48
2022-09-20T15:55:09.158Z,11.27
2022-09-20T15:57:37.016Z,11.48
2022-09-20T16:00:05.714Z,11.48
2022-09-20T16:02:37.946Z,11.41
2022-09-20T16:05:06.295Z,11.91
2022-09-20T16:07:34.140Z,12.14
2022-09-20T16:10:01.948Z,12.70
2022-09-20T16:12:29.792Z,12.69
2022-09-20T16:14:57.616Z,12.92
2022-09-20T16:17:45.713Z,13.13
2022-09-20T16:20:13.938Z,13.25
2022-09-20T16:22:41.838Z,13.15
2022-09-20T16:25:09.981Z,13.00
2022-09-20T16:27:37.767Z,13.01
2022-09-20T16:30:06.714Z,13.05
2022-09-20T16:32:34.584Z,12.95
2022-09-20T16:35:07.123Z,12.58
2022-09-20T16:37:37.028Z,12.36
2022-09-20T16:40:05.353Z,12.01
2022-09-20T16:42:33.447Z,11.44
2022-09-20T16:45:01.304Z,10.86
2022-09-20T16:47:29.696Z,10.97
2022-09-20T16:49:58.413Z,10.64
2022-09-20T16:52:26.366Z,10.67
2022-09-20T16:54:57.062Z,10.70
2022-09-20T16:57:25.771Z,10.54
2022-09-20T16:59:56.669Z,10.49
2022-09-20T17:02:51.147Z,10.42
2022-09-20T17:05:18.936Z,10.61
2022-09-20T17:07:47.015Z,10.68
2022-09-20T17:10:16.818Z,10.71
2022-09-20T17:41:51.507Z,10.70
2022-09-20T17:44:19.812Z,10.81
2022-09-20T17:46:49.597Z,10.89
2022-09-20T17:49:19.498Z,10.84
2022-09-20T17:51:49.103Z,10.85
2022-09-20T17:54:17.165Z,10.66
2022-09-20T17:56:46.564Z,10.42
2022-09-20T17:59:17.312Z,10.50
2022-09-20T18:01:47.099Z,10.25
2022-09-20T18:04:15.972Z,10.30
2022-09-20T18:06:47.261Z,10.22
2022-09-20T18:09:17.248Z,10.15
2022-09-20T18:11:48.796Z,10.03
2022-09-20T18:14:20.322Z,10.08
2022-09-20T18:16:48.491Z,10.01
2022-09-20T18:19:16.448Z,9.95
2022-09-20T18:21:44.900Z,9.94
2022-09-20T18:24:13.201Z,9.81
2022-09-20T18:26:41.634Z,9.73
2022-09-20T18:29:11.868Z,9.77
2022-09-20T18:31:45.354Z,9.77
2022-09-20T18:34:17.731Z,9.68
2022-09-20T18:36:48.428Z,9.66
2022-09-20T18:39:16.321Z,9.44
2022-09-20T18:41:44.784Z,9.33
2022-09-20T18:44:14.531Z,9.38
2022-09-20T18:46:43.813Z,9.17
2022-09-20T18:49:15.076Z,9.05
2022-09-20T18:51:43.996Z,9.01
2022-09-20T18:54:12.788Z,8.96
2022-09-20T18:56:42.149Z,9.11
2022-09-20T18:59:15.787Z,9.16
2022-09-20T19:02:03.072Z,9.18
2022-09-20T19:04:46.606Z,9.47
2022-09-20T19:07:20.083Z,9.63
2022-09-20T19:09:53.613Z,9.70
2022-09-20T19:12:27.307Z,9.70
2022-09-20T19:15:07.029Z,9.72
2022-09-20T19:17:53.070Z,9.69
2022-09-20T19:20:29.323Z,9.82
2022-09-20T19:23:07.702Z,9.85
2022-09-20T19:25:44.030Z,9.98
2022-09-20T19:28:14.061Z,9.88
2022-09-20T19:30:42.895Z,9.94
2022-09-20T19:33:17.898Z,9.83
2022-09-20T19:35:49.972Z,10.01
2022-09-20T19:38:34.282Z,9.92
2022-09-20T19:41:16.093Z,10.14
2022-09-20T19:43:57.980Z,10.27
2022-09-20T19:46:41.217Z,10.18
2022-09-20T19:49:15.498Z,10.17
2022-09-20T19:51:44.977Z,10.20
2022-09-20T19:54:14.868Z,10.11
2022-09-20T19:56:52.936Z,10.11
2022-09-20T19:59:22.770Z,9.96
2022-09-20T20:01:52.242Z,9.74
2022-09-20T20:04:22.740Z,9.77
2022-09-20T20:07:00.744Z,9.64
2022-09-20T20:09:38.477Z,9.64
2022-09-20T20:12:14.628Z,9.57
2022-09-20T20:14:55.349Z,9.49
2022-09-20T20:17:46.058Z,9.36
2022-09-20T20:20:24.101Z,9.34
2022-09-20T20:23:35.368Z,9.13
2022-09-20T20:26:07.406Z,9.14
2022-09-20T20:28:36.078Z,9.02
2022-09-20T20:31:12.373Z,8.89
2022-09-20T20:33:41.049Z,8.80
2022-09-20T20:36:11.950Z,8.80
2022-09-20T20:38:40.949Z,8.73
2022-09-20T20:41:10.317Z,8.78
2022-09-20T20:43:40.204Z,8.80
2022-09-20T20:46:09.908Z,8.72
2022-09-20T20:48:38.349Z,8.52
2022-09-20T20:51:09.643Z,8.50
2022-09-20T20:53:40.388Z,8.48
2022-09-20T20:56:12.217Z,8.45
2022-09-20T20:58:41.962Z,8.38
2022-09-20T21:01:12.228Z,8.40
2022-09-20T21:03:41.370Z,8.38
2022-09-20T21:06:10.661Z,8.35
2022-09-20T21:08:43.036Z,8.42
2022-09-20T21:11:16.409Z,8.28
2022-09-20T21:13:44.234Z,8.49
2022-09-20T21:16:14.004Z,8.33
2022-09-20T21:18:43.305Z,8.48
2022-09-20T21:21:16.674Z,8.53
2022-09-20T21:23:46.887Z,8.42
2022-09-20T21:26:16.246Z,8.32
2022-09-20T21:28:46.217Z,8.22
2022-09-20T21:31:14.500Z,8.20
2022-09-20T21:33:44.083Z,8.34
2022-09-20T21:36:14.004Z,8.37
2022-09-20T21:38:42.576Z,8.30
2022-09-20T21:41:14.186Z,8.13
2022-09-20T21:43:43.489Z,8.14
2022-09-20T21:46:12.348Z,8.26
2022-09-20T21:48:40.512Z,8.39
2022-09-20T21:51:10.793Z,8.49
2022-09-20T21:53:39.581Z,8.69
2022-09-20T21:56:09.765Z,8.84
2022-09-20T21:58:40.055Z,8.92
2022-09-20T22:01:11.572Z,8.74
2022-09-20T22:03:41.843Z,8.82
2022-09-20T22:06:12.376Z,8.86
2022-09-20T22:08:42.194Z,8.87
2022-09-20T22:11:14.928Z,8.89
2022-09-20T22:13:45.441Z,8.90
2022-09-20T22:16:17.192Z,8.74
2022-09-20T22:18:46.123Z,8.90
2022-09-20T22:21:15.486Z,8.97
2022-09-20T22:23:44.272Z,8.83
2022-09-20T22:26:14.411Z,8.82
2022-09-20T22:28:44.265Z,8.86
2022-09-20T22:31:13.875Z,8.96
2022-09-20T22:33:43.748Z,9.02
2022-09-20T22:36:14.119Z,8.95
2022-09-20T22:38:42.694Z,8.96
2022-09-20T22:41:11.574Z,8.98
2022-09-20T22:43:39.682Z,8.97
2022-09-20T22:46:11.737Z,8.97
2022-09-20T22:48:40.516Z,8.98
2022-09-20T22:51:12.999Z,8.92
2022-09-20T22:53:41.748Z,9.03
2022-09-20T22:56:12.318Z,9.14
2022-09-20T22:58:41.457Z,9.08
2022-09-20T23:01:12.952Z,8.98
2022-09-20T23:03:43.090Z,9.09
2022-09-20T23:06:15.753Z,9.19
2022-09-20T23:08:43.831Z,9.29
2022-09-20T23:11:11.728Z,9.29
2022-09-20T23:13:39.688Z,9.14
2022-09-20T23:16:18.672Z,9.17
2022-09-20T23:18:47.256Z,9.25
2022-09-20T23:21:15.792Z,9.52
2022-09-20T23:23:44.277Z,9.67
2022-09-20T23:26:14.816Z,9.58
2022-09-20T23:28:45.148Z,9.87
2022-09-20T23:31:16.817Z,9.93
2022-09-20T23:33:48.116Z,10.03
2022-09-20T23:36:17.201Z,10.10
2022-09-20T23:38:45.740Z,10.10
2022-09-20T23:41:16.269Z,10.12
2022-09-20T23:43:44.278Z,9.99
2022-09-20T23:46:13.885Z,10.04
2022-09-20T23:48:43.522Z,10.17
2022-09-20T23:51:13.616Z,10.31
2022-09-20T23:53:41.961Z,10.32
2022-09-20T23:56:11.059Z,10.29
2022-09-20T23:58:40.424Z,10.49
